createdAt,value
2024-02-21T00:05:27.688Z,2.78
2024-02-21T00:09:17.597Z,3.30
2024-02-21T01:18:37.745Z,1.60
2024-02-21T02:24:09.361Z,1.62
2024-02-21T02:31:23.419Z,1.80
2024-02-21T03:31:55.314Z,2.20
2024-02-21T04:06:53.694Z,1.92
2024-02-21T04:18:09.457Z,2.08
2024-02-21T04:51:09.394Z,2.10
2024-02-21T04:58:07.820Z,2.42
2024-02-21T05:01:32.577Z,2.55
2024-02-21T05:05:00.423Z,2.03
2024-02-21T05:08:35.182Z,2.60
2024-02-21T05:11:41.268Z,2.05
2024-02-21T05:14:49.801Z,2.30
2024-02-21T05:17:55.735Z,2.40
2024-02-21T05:21:08.941Z,2.22
2024-02-21T05:24:14.981Z,2.00
2024-02-21T05:27:18.925Z,2.00
2024-02-21T05:30:21.609Z,2.35
2024-02-21T05:33:48.787Z,2.67
2024-02-21T05:36:59.072Z,2.47
2024-02-21T05:40:07.892Z,2.62
2024-02-21T05:43:14.971Z,2.70
2024-02-21T05:46:59.986Z,3.10
2024-02-21T05:50:07.351Z,2.90
2024-02-21T05:54:06.668Z,3.20
2024-02-21T05:57:31.625Z,3.17
2024-02-21T06:00:37.369Z,3.50
2024-02-21T06:04:01.904Z,3.35
2024-02-21T06:07:25.087Z,2.95
2024-02-21T06:10:53.876Z,2.97
2024-02-21T06:14:05.524Z,3.70
2024-02-21T06:17:53.959Z,3.00
2024-02-21T06:21:37.722Z,3.00
2024-02-21T06:25:43.785Z,2.90
2024-02-21T06:29:09.233Z,2.85
2024-02-21T06:32:14.809Z,2.87
2024-02-21T06:35:19.098Z,3.47
2024-02-21T06:39:10.993Z,3.25
2024-02-21T06:43:26.323Z,2.92
2024-02-21T06:46:57.420Z,2.22
2024-02-21T06:50:53.630Z,2.50
2024-02-21T06:54:49.430Z,2.20
2024-02-21T06:58:40.163Z,2.85
2024-02-21T07:02:51.099Z,2.37
2024-02-21T07:06:22.152Z,2.75
2024-02-21T07:09:31.734Z,2.70
2024-02-21T07:13:18.972Z,3.10
2024-02-21T07:16:45.531Z,2.37
2024-02-21T07:19:49.224Z,2.35
2024-02-21T07:23:18.547Z,2.45
2024-02-21T07:27:02.933Z,3.75
2024-02-21T07:30:43.860Z,3.35
2024-02-21T07:34:01.482Z,3.22
2024-02-21T07:37:37.066Z,3.37
2024-02-21T07:41:01.209Z,3.35
2024-02-21T07:44:37.922Z,3.58
2024-02-21T07:48:35.707Z,2.80
2024-02-21T07:53:06.208Z,2.80
2024-02-21T08:19:08.944Z,2.20
2024-02-21T08:23:02.962Z,2.35
2024-02-21T08:26:18.234Z,2.03
2024-02-21T08:29:54.626Z,2.50
2024-02-21T08:33:46.022Z,2.28
2024-02-21T08:37:06.298Z,2.12
2024-02-21T08:40:13.813Z,2.50
2024-02-21T08:48:27.224Z,2.40
2024-02-21T08:52:34.210Z,2.75
2024-02-21T08:56:17.470Z,2.37
2024-02-21T09:08:06.904Z,2.05
2024-02-21T09:11:11.045Z,2.12
2024-02-21T09:14:42.008Z,2.00
2024-02-21T09:18:24.611Z,2.30
2024-02-21T09:21:34.486Z,2.22
2024-02-21T09:24:40.844Z,1.92
2024-02-21T09:27:45.733Z,2.22
2024-02-21T09:30:52.661Z,2.22
2024-02-21T09:33:56.274Z,1.97
2024-02-21T09:37:32.823Z,2.10
2024-02-21T09:41:13.537Z,1.60
2024-02-21T09:44:18.737Z,2.10
2024-02-21T09:48:22.447Z,1.67
2024-02-21T09:52:06.463Z,2.12
2024-02-21T09:55:48.836Z,1.92
2024-02-21T09:59:22.680Z,2.00
2024-02-21T10:03:27.778Z,2.08
2024-02-21T10:11:30.243Z,1.90
2024-02-21T10:15:13.545Z,1.77
2024-02-21T10:18:37.697Z,1.90
2024-02-21T10:22:37.063Z,2.28
2024-02-21T10:26:40.053Z,2.03
2024-02-21T10:30:05.326Z,2.15
2024-02-21T10:33:34.938Z,2.10
2024-02-21T10:37:07.663Z,2.10
2024-02-21T10:41:10.032Z,2.65
2024-02-21T10:44:53.825Z,2.47
2024-02-21T10:48:49.386Z,2.42
2024-02-21T10:52:53.772Z,2.10
2024-02-21T10:57:00.636Z,3.05
2024-02-21T11:00:31.578Z,2.40
2024-02-21T11:08:10.862Z,2.47
2024-02-21T11:15:41.297Z,2.37
2024-02-21T11:19:09.215Z,2.50
2024-02-21T11:22:42.532Z,2.58
2024-02-21T11:25:50.624Z,2.20
2024-02-21T11:29:24.852Z,3.00
2024-02-21T11:33:21.559Z,2.87
2024-02-21T11:37:16.932Z,2.80
2024-02-21T11:40:26.980Z,2.25
2024-02-21T11:43:53.864Z,2.37
2024-02-21T11:47:31.967Z,2.60
2024-02-21T11:50:38.354Z,2.78
2024-02-21T11:54:12.509Z,2.60
2024-02-21T11:57:55.054Z,2.53
2024-02-21T12:00:59.974Z,2.53
2024-02-21T12:04:09.119Z,2.42
2024-02-21T12:07:52.957Z,2.58
2024-02-21T12:11:30.934Z,2.45
2024-02-21T12:23:35.260Z,2.28
2024-02-21T12:27:02.543Z,2.53
2024-02-21T12:30:46.894Z,2.80
2024-02-21T12:34:11.375Z,2.62
2024-02-21T12:37:52.868Z,2.25
2024-02-21T12:42:13.248Z,2.22
2024-02-21T12:49:45.998Z,2.22
2024-02-21T12:53:33.139Z,1.83
2024-02-21T12:57:08.208Z,2.00
2024-02-21T13:01:39.632Z,1.73
2024-02-21T13:09:39.303Z,1.58
2024-02-21T13:13:32.408Z,1.60
2024-02-21T13:21:08.612Z,2.42
2024-02-21T13:24:54.155Z,2.03
2024-02-21T13:28:36.997Z,2.47
2024-02-21T13:45:10.192Z,1.70
2024-02-21T13:53:08.926Z,1.90
2024-02-21T13:56:52.988Z,1.95
2024-02-21T14:00:13.512Z,1.98
2024-02-21T14:04:00.283Z,2.03
2024-02-21T14:07:27.801Z,2.12
2024-02-21T14:11:06.370Z,2.10
2024-02-21T14:14:49.113Z,2.10
2024-02-21T14:18:22.813Z,2.10
2024-02-21T14:21:55.264Z,1.83
2024-02-21T14:25:29.457Z,1.65
2024-02-21T14:29:02.152Z,1.80
2024-02-21T14:32:29.458Z,1.90
2024-02-21T14:35:54.528Z,2.10
2024-02-21T14:39:21.677Z,1.90
2024-02-21T14:42:40.291Z,1.80
2024-02-21T14:46:20.604Z,1.80
2024-02-21T14:49:53.808Z,1.70
2024-02-21T14:53:23.723Z,1.83
2024-02-21T14:57:01.727Z,1.67
2024-02-21T15:00:33.649Z,1.65
2024-02-21T15:03:56.915Z,1.70
2024-02-21T15:15:39.324Z,2.12
2024-02-21T15:19:46.254Z,1.80
2024-02-21T15:23:31.316Z,1.60
2024-02-21T15:27:07.693Z,2.20
2024-02-21T15:30:53.269Z,1.75
2024-02-21T15:34:39.449Z,1.85
2024-02-21T15:38:23.519Z,1.80
2024-02-21T15:42:00.079Z,1.55
2024-02-21T15:46:03.294Z,1.73
2024-02-21T15:49:30.358Z,1.73
2024-02-21T15:53:02.806Z,1.90
2024-02-21T15:56:26.193Z,1.70
2024-02-21T15:59:55.493Z,1.60
2024-02-21T16:02:59.859Z,2.40
2024-02-21T16:06:47.788Z,1.85
2024-02-21T16:10:17.115Z,1.90
2024-02-21T16:14:03.233Z,7.20
2024-02-21T16:17:27.684Z,16.08
2024-02-21T16:20:53.106Z,10.07
2024-02-21T16:24:21.225Z,10.73
2024-02-21T16:27:53.482Z,5.20
2024-02-21T16:31:00.771Z,5.22
2024-02-21T16:34:48.121Z,4.70
2024-02-21T16:38:13.324Z,4.50
2024-02-21T16:41:51.006Z,4.72
2024-02-21T16:45:02.979Z,5.55
2024-02-21T16:48:47.811Z,4.93
2024-02-21T16:51:51.061Z,6.45
2024-02-21T16:54:57.700Z,7.93
2024-02-21T16:58:02.413Z,9.50
2024-02-21T17:01:42.178Z,12.43
2024-02-21T17:04:46.395Z,11.70
2024-02-21T17:07:50.626Z,10.77
2024-02-21T17:10:54.342Z,9.38
2024-02-21T17:13:57.095Z,9.35
2024-02-21T17:17:05.370Z,8.02
2024-02-21T17:20:12.790Z,8.27
2024-02-21T17:23:16.923Z,7.60
2024-02-21T17:26:33.972Z,7.50
2024-02-21T17:32:42.737Z,8.35
2024-02-21T17:35:51.192Z,10.13
2024-02-21T17:38:56.644Z,10.50
2024-02-21T17:42:00.733Z,11.10
2024-02-21T17:45:04.451Z,11.48
2024-02-21T17:48:08.488Z,11.57
2024-02-21T17:51:11.045Z,17.08
2024-02-21T17:54:15.491Z,16.45
2024-02-21T17:57:19.443Z,14.95
2024-02-21T18:00:23.389Z,16.20
2024-02-21T18:03:31.269Z,16.15
2024-02-21T18:06:36.364Z,17.10
2024-02-21T18:09:42.578Z,16.50
2024-02-21T18:12:48.198Z,16.90
2024-02-21T18:15:51.596Z,15.25
2024-02-21T18:18:59.112Z,14.57
2024-02-21T18:22:03.357Z,14.30
2024-02-21T18:25:27.523Z,14.00
2024-02-21T18:28:34.733Z,15.45
2024-02-21T18:31:57.242Z,15.10
2024-02-21T18:35:03.540Z,13.75
2024-02-21T18:38:07.161Z,13.47
2024-02-21T18:41:13.161Z,11.93
2024-02-21T18:44:18.532Z,10.98
2024-02-21T18:47:24.654Z,9.93
2024-02-21T18:50:28.444Z,9.70
2024-02-21T18:53:31.976Z,9.15
2024-02-21T18:56:38.137Z,9.40
2024-02-21T18:59:41.964Z,9.07
2024-02-21T19:02:44.810Z,8.18
2024-02-21T19:05:50.757Z,8.32
2024-02-21T19:08:56.331Z,8.80
2024-02-21T19:12:00.235Z,8.75
2024-02-21T19:15:07.898Z,9.10
2024-02-21T19:18:11.611Z,8.52
2024-02-21T19:21:19.822Z,9.10
2024-02-21T19:25:04.070Z,9.18
2024-02-21T19:28:31.849Z,9.23
2024-02-21T19:31:35.370Z,9.55
2024-02-21T19:34:42.898Z,9.00
2024-02-21T19:37:46.626Z,8.73
2024-02-21T19:41:15.387Z,8.90
2024-02-21T19:44:24.651Z,8.75
2024-02-21T19:47:29.832Z,8.43
2024-02-21T19:50:34.383Z,7.90
2024-02-21T19:53:37.855Z,7.82
2024-02-21T19:56:41.387Z,7.50
2024-02-21T19:59:48.509Z,7.37
2024-02-21T20:02:53.550Z,7.75
2024-02-21T20:05:59.973Z,6.62
2024-02-21T20:09:08.839Z,7.15
2024-02-21T20:12:12.742Z,7.65
2024-02-21T20:15:17.490Z,6.82
2024-02-21T20:18:23.292Z,6.43
2024-02-21T20:21:26.566Z,6.57
2024-02-21T20:24:40.395Z,5.57
2024-02-21T20:27:44.859Z,5.93
2024-02-21T20:31:10.336Z,6.28
2024-02-21T20:34:36.970Z,6.47
2024-02-21T20:37:48.787Z,6.82
2024-02-21T20:40:52.717Z,7.50
2024-02-21T20:43:58.556Z,6.17
2024-02-21T20:47:06.592Z,6.20
2024-02-21T20:50:13.720Z,6.05
2024-02-21T20:53:16.985Z,6.00
2024-02-21T20:56:23.209Z,5.82
2024-02-21T20:59:27.326Z,5.43
2024-02-21T21:02:31.756Z,4.80
2024-02-21T21:05:40.034Z,5.57
2024-02-21T21:08:44.103Z,6.15
2024-02-21T21:12:12.074Z,6.15
2024-02-21T21:18:39.055Z,6.10
2024-02-21T21:21:47.610Z,6.10
2024-02-21T21:24:53.950Z,6.40
2024-02-21T21:27:58.022Z,6.18
2024-02-21T21:31:24.623Z,6.60
2024-02-21T21:34:31.169Z,6.37
2024-02-21T21:37:35.063Z,5.90
2024-02-21T21:40:47.408Z,6.30
2024-02-21T21:43:51.333Z,6.47
2024-02-21T21:46:55.311Z,5.80
2024-02-21T21:50:18.144Z,6.07
2024-02-21T21:53:25.661Z,5.40
2024-02-21T21:56:29.046Z,6.32
2024-02-21T21:59:43.764Z,5.87
2024-02-21T22:02:49.162Z,6.75
2024-02-21T22:05:54.923Z,6.50
2024-02-21T22:08:58.170Z,6.70
2024-02-21T22:12:04.520Z,6.37
2024-02-21T22:15:08.540Z,6.93
2024-02-21T22:18:12.409Z,6.32
2024-02-21T22:21:15.419Z,7.20
2024-02-21T22:24:20.642Z,6.65
2024-02-21T22:27:25.499Z,6.68
2024-02-21T22:30:33.745Z,8.07
2024-02-21T22:33:39.379Z,8.40
2024-02-21T22:36:47.663Z,8.02
2024-02-21T22:40:14.622Z,8.60
2024-02-21T22:43:54.734Z,7.30
2024-02-21T22:47:25.498Z,7.62
2024-02-21T22:50:31.020Z,6.82
2024-02-21T22:53:36.027Z,6.82
2024-02-21T22:56:46.424Z,7.30
2024-02-21T23:00:11.012Z,7.07
2024-02-21T23:03:21.337Z,6.82
2024-02-21T23:06:29.378Z,6.28
2024-02-21T23:09:33.989Z,6.95
2024-02-21T23:12:38.360Z,6.75
2024-02-21T23:15:45.366Z,5.80
2024-02-21T23:19:11.614Z,6.80
2024-02-21T23:22:19.425Z,6.72
2024-02-21T23:25:25.305Z,6.62
2024-02-21T23:28:28.189Z,6.28
2024-02-21T23:31:32.049Z,6.75
2024-02-21T23:34:36.494Z,6.43
2024-02-21T23:37:41.088Z,6.57
2024-02-21T23:40:46.089Z,7.30
2024-02-21T23:44:00.089Z,7.68
2024-02-21T23:47:04.945Z,6.62
2024-02-21T23:50:14.220Z,5.93
2024-02-21T23:53:20.018Z,6.93
2024-02-21T23:56:29.490Z,6.62
2024-02-21T23:59:36.924Z,6.90
